Manzanola, Colorado
Current Conditions -  °F | °C
As of 6:53 PM on Thursday 20 Nov 2014 (Local Time) from KLHX Reporting Station
Scattered Clouds Scattered Clouds  
Wind Chill: 36°   Ceiling: Unl
Heat Index: 40°   Visibility: 10mi
Dew Point: 30°   Wind: 6mph
Humidity: 68%   Direction: 100°E
Pressure: 29.99"   Gusts: NA
Location:  38.11°N, 103.87°W
Report Text: KLHX 210153Z AUTO 10005KT 10SM SCT120 04/M01 A2999 RMK AO2 SLP163 T00441011
Loading
Personal Weather Stations






























Interactive Weather Map New forecast layout! Learn more

10-Day Weather Forecast

Advertisements
Track Severe Weather on mobile